Details for Flybe at EGHI




Go Back


Latest METAR
Local Time

EGHI 221050Z VRB03KT 9999 -SHRA FEW038 BKN048 12/07 Q1020
22/09/2018, 12:00:44

Description
Results
Flybe Logo
Number of Pilots based at EGHI
1 Pilots Based here
Number of Flybe Flights Departed from EGHI
19 Flights Departed
Number of Flybe Flights Arrived at EGHI
18 Flights Arrived
Number of Flybe Schedules Departing from EGHI
69 Schedules
Number of Flybe Schedules Arriving at EGHI
68 Schedules
Number of Flybe Schedules Departing from EGHI availible today
30 Schedules Today
Number of Flybe Schedules Arriving at EGHI availible today
31 Schedules Today
Average Landing Rate at EGHI
-315 fpm
Flybe Average Landing Rate at EGHI
-299 fpm
Total Fuel Purchased at EGHI by Flybe
20,586.11 kgs / 45,384.14 lbs

Pilots Based at EGHI


Pilot ID
Pilot Name
Pilot Rank
No. of Flights
No. of Flying Hours
Sam Berry
169
371.54
Content